Terminal Aerodrome Forecast
Issued by NWS

Home | Current Version | Previous Version | Text Only | Print | Product List | Glossary On
Versions: 1 2 3 4 5 6 7 8 9 10 11 12 13 14 15 16 17 18 19 20 21 22 23 24 25 26 27 28 29 30 31 32
806
FTUS41 KOKX 221122
TAFGON
TAF
KGON 221122Z 2212/2312 00000KT P6SM BKN200
     FM221300 17005KT P6SM SCT150 BKN200
     FM221600 17008KT P6SM VCSH FEW020 SCT050 OVC090
     FM222000 14007KT 6SM -SHRA FEW020 BKN050
     FM222300 12006KT 4SM -SHRA BR OVC012
     FM230200 VRB03KT 2SM -SHRA BR OVC004
     FM230600 VRB02KT 1SM -SHRA BR OVC003=

USA.gov is the U.S. government's official web portal to all federal, state and local government web resources and services.